createdAt,value
2019-01-05T00:01:56.611Z,8.07
2019-01-05T00:04:52.621Z,9.10
2019-01-05T00:07:51.328Z,7.03
2019-01-05T00:10:56.509Z,7.80
2019-01-05T00:13:45.617Z,8.10
2019-01-05T00:16:36.216Z,8.90
2019-01-05T00:19:28.251Z,8.83
2019-01-05T00:22:18.260Z,8.00
2019-01-05T00:25:18.071Z,7.83
2019-01-05T00:28:08.974Z,6.33
2019-01-05T00:30:58.686Z,7.13
2019-01-05T00:33:43.057Z,6.73
2019-01-05T00:36:56.888Z,22.80
2019-01-05T00:39:47.633Z,6.70
2019-01-05T00:43:01.788Z,5.90
2019-01-05T00:45:53.544Z,6.97
2019-01-05T00:48:53.460Z,16.23
2019-01-05T00:51:43.929Z,6.77
2019-01-05T00:54:34.136Z,5.90
2019-01-05T00:57:43.519Z,5.50
2019-01-05T01:00:37.571Z,6.50
2019-01-05T01:03:26.838Z,6.50
2019-01-05T01:06:30.932Z,7.00
2019-01-05T01:09:25.461Z,6.17
2019-01-05T01:12:28.754Z,5.57
2019-01-05T01:15:22.442Z,7.80
2019-01-05T01:18:03.846Z,5.77
2019-01-05T01:20:53.962Z,7.50
2019-01-05T01:23:47.522Z,6.83
2019-01-05T01:26:52.539Z,6.63
2019-01-05T01:29:51.787Z,6.10
2019-01-05T01:32:42.882Z,6.80
2019-01-05T01:35:57.203Z,6.63
2019-01-05T01:39:07.216Z,6.93
2019-01-05T01:41:58.301Z,6.73
2019-01-05T01:45:04.063Z,7.40
2019-01-05T01:47:52.101Z,6.70
2019-01-05T01:50:45.080Z,7.23
2019-01-05T01:53:42.597Z,8.23
2019-01-05T01:56:31.846Z,7.77
2019-01-05T01:59:37.873Z,7.30
2019-01-05T02:02:28.948Z,8.17
2019-01-05T02:05:34.830Z,7.03
2019-01-05T02:08:27.300Z,8.37
2019-01-05T02:11:45.374Z,7.97
2019-01-05T02:14:39.937Z,9.30
2019-01-05T02:17:41.363Z,8.90
2019-01-05T02:20:55.717Z,8.90
2019-01-05T02:24:43.525Z,8.53
2019-01-05T02:28:05.221Z,9.23
2019-01-05T02:31:37.163Z,9.67
2019-01-05T02:35:10.944Z,10.20
2019-01-05T02:38:54.875Z,9.90
2019-01-05T02:42:47.285Z,9.57
2019-01-05T02:46:29.220Z,8.80
2019-01-05T02:50:08.433Z,10.80
2019-01-05T02:53:39.032Z,10.70
2019-01-05T02:57:19.891Z,8.80
2019-01-05T03:00:55.171Z,9.53
2019-01-05T03:04:35.777Z,10.73
2019-01-05T03:08:18.488Z,9.70
2019-01-05T03:11:50.487Z,10.30
2019-01-05T03:15:31.729Z,9.60
2019-01-05T03:18:56.924Z,9.33
2019-01-05T03:22:37.090Z,7.83
2019-01-05T03:26:11.719Z,7.90
2019-01-05T03:29:55.864Z,8.80
2019-01-05T03:33:02.882Z,9.77
2019-01-05T03:36:39.352Z,8.73
2019-01-05T03:40:30.962Z,9.00
2019-01-05T03:44:29.385Z,9.50
2019-01-05T03:48:11.102Z,8.40
2019-01-05T03:51:41.125Z,7.67
2019-01-05T03:55:21.992Z,7.70
2019-01-05T03:58:51.365Z,7.27
2019-01-05T04:02:34.880Z,7.77
2019-01-05T04:06:03.827Z,8.30
2019-01-05T04:09:46.845Z,6.90
2019-01-05T04:13:12.234Z,8.60
2019-01-05T04:17:14.760Z,7.13
2019-01-05T04:21:03.239Z,8.47
2019-01-05T04:24:30.426Z,8.10
2019-01-05T04:28:25.074Z,8.80
2019-01-05T04:31:55.921Z,7.73
2019-01-05T04:35:34.391Z,9.40
2019-01-05T04:39:13.819Z,8.20
2019-01-05T04:42:46.893Z,9.10
2019-01-05T04:46:34.862Z,9.33
2019-01-05T04:50:22.331Z,8.60
2019-01-05T04:53:57.518Z,8.13
2019-01-05T04:57:36.961Z,8.40
2019-01-05T05:01:21.981Z,8.67
2019-01-05T05:05:00.834Z,8.13
2019-01-05T05:08:37.256Z,8.77
2019-01-05T05:12:13.331Z,8.20
2019-01-05T05:15:41.148Z,8.40
2019-01-05T05:19:30.873Z,8.90
2019-01-05T05:23:08.252Z,9.33
2019-01-05T05:26:43.560Z,9.77
2019-01-05T05:30:19.073Z,10.40
2019-01-05T05:34:04.580Z,10.03
2019-01-05T05:38:05.054Z,9.93
2019-01-05T05:41:26.439Z,10.37
2019-01-05T05:44:47.377Z,10.43
2019-01-05T05:47:59.374Z,9.77
2019-01-05T05:51:49.585Z,8.90
2019-01-05T05:55:53.965Z,11.47
2019-01-05T05:59:36.736Z,9.90
2019-01-05T06:03:29.808Z,9.53
2019-01-05T06:06:56.567Z,12.33
2019-01-05T06:10:36.321Z,10.53
2019-01-05T06:14:30.797Z,10.30
2019-01-05T06:18:09.084Z,10.60
2019-01-05T06:21:35.396Z,9.47
2019-01-05T06:25:20.246Z,9.53
2019-01-05T06:28:51.809Z,10.70
2019-01-05T06:32:23.859Z,9.97
2019-01-05T06:35:53.241Z,10.57
2019-01-05T06:39:22.814Z,9.10
2019-01-05T06:43:00.533Z,9.40
2019-01-05T06:46:45.592Z,10.23
2019-01-05T06:50:23.879Z,11.37
2019-01-05T06:54:03.073Z,10.77
2019-01-05T06:57:31.686Z,11.77
2019-01-05T07:01:13.080Z,10.73
2019-01-05T07:04:55.597Z,12.27
2019-01-05T07:08:27.604Z,11.03
2019-01-05T07:11:52.977Z,10.63
2019-01-05T07:15:23.480Z,12.33
2019-01-05T07:19:01.820Z,11.87
2019-01-05T07:22:31.260Z,11.00
2019-01-05T07:25:58.314Z,12.53
2019-01-05T07:29:22.370Z,12.77
2019-01-05T07:32:42.192Z,11.40
2019-01-05T07:36:21.656Z,13.50
2019-01-05T07:40:08.534Z,11.87
2019-01-05T07:43:34.807Z,13.23
2019-01-05T07:47:08.603Z,12.10
2019-01-05T07:50:44.566Z,11.97
2019-01-05T07:54:17.051Z,11.50
2019-01-05T07:57:38.034Z,11.90
2019-01-05T08:01:23.296Z,10.80
2019-01-05T08:04:43.466Z,11.83
2019-01-05T08:08:13.440Z,13.27
2019-01-05T08:11:35.978Z,11.83
2019-01-05T08:15:10.325Z,11.60
2019-01-05T08:18:54.541Z,12.20
2019-01-05T08:22:20.509Z,12.03
2019-01-05T08:25:50.134Z,12.03
2019-01-05T08:29:18.212Z,11.33
2019-01-05T08:32:40.797Z,12.80
2019-01-05T08:36:04.640Z,11.80
2019-01-05T08:39:41.776Z,12.20
2019-01-05T08:43:24.920Z,13.00
2019-01-05T08:46:54.050Z,11.87
2019-01-05T08:50:44.438Z,11.93
2019-01-05T08:54:22.881Z,13.50
2019-01-05T08:57:57.047Z,13.27
2019-01-05T09:01:29.538Z,12.70
2019-01-05T09:05:17.530Z,13.23
2019-01-05T09:09:09.544Z,12.60
2019-01-05T09:12:53.396Z,11.80
2019-01-05T09:16:53.036Z,12.87
2019-01-05T09:20:12.853Z,15.30
2019-01-05T09:23:56.963Z,13.37
2019-01-05T09:27:27.507Z,12.47
2019-01-05T09:31:01.419Z,12.27
2019-01-05T09:34:31.852Z,12.80
2019-01-05T09:37:55.196Z,14.07
2019-01-05T09:41:14.419Z,11.70
2019-01-05T09:45:01.526Z,12.70
2019-01-05T09:48:44.538Z,12.90
2019-01-05T09:52:29.158Z,13.13
2019-01-05T09:56:16.173Z,14.37
2019-01-05T09:59:55.181Z,13.63
2019-01-05T10:03:50.147Z,13.50
2019-01-05T10:07:43.412Z,14.00
2019-01-05T10:11:17.464Z,13.90
2019-01-05T10:14:39.757Z,12.73
2019-01-05T10:18:14.489Z,12.63
2019-01-05T10:22:06.794Z,11.90
2019-01-05T10:25:41.547Z,12.27
2019-01-05T10:29:01.469Z,12.37
2019-01-05T10:32:33.366Z,12.60
2019-01-05T10:36:16.567Z,12.10
2019-01-05T10:39:52.849Z,12.10
2019-01-05T10:43:20.535Z,11.40
2019-01-05T10:47:00.305Z,13.90
2019-01-05T10:50:38.381Z,10.90
2019-01-05T10:54:40.045Z,11.60
2019-01-05T10:58:11.673Z,10.37
2019-01-05T11:01:40.805Z,13.50
2019-01-05T11:05:19.702Z,12.00
2019-01-05T11:09:23.224Z,13.53
2019-01-05T11:12:55.944Z,14.07
2019-01-05T11:16:40.106Z,14.00
2019-01-05T11:20:23.540Z,14.23
2019-01-05T11:23:51.090Z,13.57
2019-01-05T11:27:17.392Z,13.07
2019-01-05T11:30:42.133Z,13.67
2019-01-05T11:34:20.145Z,13.83
2019-01-05T11:38:02.372Z,13.30
2019-01-05T11:41:44.115Z,14.37
2019-01-05T11:45:16.111Z,14.30
2019-01-05T11:48:56.195Z,15.47
2019-01-05T11:52:46.462Z,12.93
2019-01-05T11:56:16.885Z,14.30
2019-01-05T11:59:31.000Z,14.00
2019-01-05T12:02:51.995Z,14.43
2019-01-05T12:06:51.999Z,13.00
2019-01-05T12:10:17.696Z,16.10
2019-01-05T12:13:58.383Z,11.00
2019-01-05T12:17:28.922Z,14.23
2019-01-05T12:21:10.717Z,13.20
2019-01-05T12:24:29.872Z,13.97
2019-01-05T12:27:52.327Z,14.07
2019-01-05T12:31:37.350Z,18.97
2019-01-05T12:34:57.462Z,13.03
2019-01-05T12:38:40.656Z,9.00
2019-01-05T12:42:17.531Z,7.90
2019-01-05T12:45:37.000Z,9.23
2019-01-05T12:49:01.197Z,11.22
2019-01-05T12:52:48.469Z,10.77
2019-01-05T12:56:19.624Z,10.37
2019-01-05T13:00:02.134Z,11.87
2019-01-05T13:03:50.126Z,13.18
2019-01-05T13:07:38.788Z,10.83
2019-01-05T13:11:19.306Z,12.13
2019-01-05T13:14:44.451Z,11.73
2019-01-05T13:18:18.088Z,11.73
2019-01-05T13:21:54.042Z,11.10
2019-01-05T13:25:28.029Z,11.70
2019-01-05T13:29:13.752Z,10.40
2019-01-05T13:32:36.811Z,10.93
2019-01-05T13:36:15.132Z,10.60
2019-01-05T13:39:46.543Z,10.10
2019-01-05T13:43:08.763Z,9.07
2019-01-05T13:46:31.688Z,11.03
2019-01-05T13:50:00.838Z,10.70
2019-01-05T13:53:15.428Z,9.87
2019-01-05T13:56:08.393Z,10.67
2019-01-05T13:59:01.433Z,10.20
2019-01-05T14:02:03.197Z,11.77
2019-01-05T14:04:51.829Z,10.20
2019-01-05T14:07:42.146Z,9.70
2019-01-05T14:10:31.375Z,9.57
2019-01-05T14:13:26.481Z,9.67
2019-01-05T14:16:17.964Z,9.87
2019-01-05T14:19:26.030Z,10.20
2019-01-05T14:22:35.111Z,10.50
2019-01-05T14:25:46.695Z,16.43
2019-01-05T14:28:36.372Z,7.80
2019-01-05T14:31:26.442Z,8.60
2019-01-05T14:34:18.050Z,10.30
2019-01-05T14:37:09.364Z,10.20
2019-01-05T14:39:58.212Z,11.57
2019-01-05T14:42:47.153Z,9.77
2019-01-05T14:45:39.000Z,8.53
2019-01-05T14:48:27.774Z,12.17
2019-01-05T14:51:17.905Z,8.87
2019-01-05T14:54:08.158Z,9.23
2019-01-05T14:56:58.636Z,7.93
2019-01-05T14:59:51.322Z,10.17
2019-01-05T15:02:48.089Z,8.93
2019-01-05T15:05:42.702Z,9.23
2019-01-05T15:08:31.277Z,7.00
2019-01-05T15:11:27.403Z,6.50
2019-01-05T15:14:16.253Z,7.30
2019-01-05T15:17:12.588Z,7.00
2019-01-05T15:20:01.333Z,6.17
2019-01-05T15:23:03.470Z,6.40
2019-01-05T15:25:56.241Z,6.30
2019-01-05T15:28:58.562Z,7.40
2019-01-05T15:32:05.144Z,7.90
2019-01-05T15:34:53.990Z,9.10
2019-01-05T15:37:48.173Z,9.50
2019-01-05T15:40:32.268Z,7.37
2019-01-05T15:43:22.384Z,8.07
2019-01-05T15:46:11.691Z,8.37
2019-01-05T15:49:20.447Z,10.50
2019-01-05T15:52:16.949Z,9.00
2019-01-05T15:55:08.609Z,8.23
2019-01-05T15:57:59.436Z,8.57
2019-01-05T16:00:52.002Z,10.10
2019-01-05T16:03:51.730Z,8.78
2019-01-05T16:06:49.568Z,9.10
2019-01-05T16:10:00.400Z,10.00
2019-01-05T16:12:48.306Z,9.60
2019-01-05T16:15:36.956Z,11.20
2019-01-05T16:18:26.761Z,9.80
2019-01-05T16:21:32.299Z,14.37
2019-01-05T16:24:28.553Z,8.77
2019-01-05T16:27:18.408Z,9.93
2019-01-05T16:30:18.688Z,8.77
2019-01-05T16:33:14.059Z,8.60
2019-01-05T16:36:06.362Z,9.13
2019-01-05T16:39:12.213Z,8.77
2019-01-05T16:42:15.008Z,9.07
2019-01-05T16:45:17.278Z,7.57
2019-01-05T16:48:06.029Z,8.20
2019-01-05T16:50:59.748Z,8.43
2019-01-05T16:54:08.015Z,10.23
2019-01-05T16:57:05.285Z,9.73
2019-01-05T17:00:13.739Z,8.23
2019-01-05T17:03:06.428Z,8.30
2019-01-05T17:05:54.948Z,8.90
2019-01-05T17:08:50.241Z,9.23
2019-01-05T17:11:48.098Z,8.87
2019-01-05T17:14:44.525Z,9.07
2019-01-05T17:17:33.990Z,9.80
2019-01-05T17:20:29.957Z,10.63
2019-01-05T17:23:20.789Z,10.27
2019-01-05T17:26:26.781Z,13.70
2019-01-05T17:29:18.072Z,10.40
2019-01-05T17:32:17.725Z,11.67
2019-01-05T17:35:06.491Z,9.60
2019-01-05T17:37:55.734Z,8.57
2019-01-05T17:41:10.945Z,15.00
2019-01-05T17:43:56.506Z,10.83
2019-01-05T17:46:55.110Z,10.37
2019-01-05T17:49:50.920Z,10.73
2019-01-05T17:52:56.443Z,11.00
2019-01-05T17:55:38.948Z,11.57
2019-01-05T17:58:27.975Z,11.90
2019-01-05T18:01:39.093Z,11.83
2019-01-05T18:04:38.707Z,11.80
2019-01-05T18:07:42.069Z,9.97
2019-01-05T18:10:33.028Z,11.20
2019-01-05T18:13:26.957Z,12.70
2019-01-05T18:16:36.233Z,11.40
2019-01-05T18:19:42.088Z,17.43
2019-01-05T18:22:38.523Z,12.37
2019-01-05T18:25:27.019Z,14.30
2019-01-05T18:28:20.012Z,14.93
2019-01-05T18:31:09.227Z,14.83
2019-01-05T18:33:59.609Z,20.07
2019-01-05T18:36:47.480Z,14.07
2019-01-05T18:39:43.443Z,12.90
2019-01-05T18:42:34.080Z,18.67
2019-01-05T18:45:42.337Z,15.13
2019-01-05T18:48:25.568Z,12.67
2019-01-05T18:51:19.164Z,13.70
2019-01-05T18:54:12.374Z,13.50
2019-01-05T18:57:10.811Z,13.37
2019-01-05T19:00:04.473Z,12.90
2019-01-05T19:03:00.175Z,14.17
2019-01-05T19:05:55.335Z,12.93
2019-01-05T19:08:44.182Z,13.60
2019-01-05T19:11:43.981Z,16.60
2019-01-05T19:14:28.726Z,9.90
2019-01-05T19:17:26.776Z,10.10
2019-01-05T19:20:16.619Z,7.30
2019-01-05T19:23:09.880Z,9.00
2019-01-05T19:25:58.983Z,9.10
2019-01-05T19:28:58.402Z,10.73
2019-01-05T19:31:55.111Z,9.77
2019-01-05T19:34:54.178Z,9.00
2019-01-05T19:37:50.078Z,9.83
2019-01-05T19:40:40.559Z,7.77
2019-01-05T19:43:29.115Z,8.27
2019-01-05T19:46:28.321Z,9.00
2019-01-05T19:49:27.727Z,7.40
2019-01-05T19:52:16.452Z,9.50
2019-01-05T19:55:05.627Z,10.60
2019-01-05T19:57:54.386Z,10.47
2019-01-05T20:00:55.263Z,10.20
2019-01-05T20:03:43.394Z,9.63
2019-01-05T20:06:41.057Z,10.10
2019-01-05T20:09:30.042Z,10.00
2019-01-05T20:12:20.044Z,8.93
2019-01-05T20:15:28.440Z,9.13
2019-01-05T20:18:17.270Z,8.70
2019-01-05T20:21:10.244Z,9.97
2019-01-05T20:24:03.586Z,9.23
2019-01-05T20:27:08.255Z,12.57
2019-01-05T20:30:10.164Z,12.50
2019-01-05T20:33:17.388Z,11.90
2019-01-05T20:36:13.697Z,10.80
2019-01-05T20:39:15.609Z,10.70
2019-01-05T20:42:13.916Z,10.30
2019-01-05T20:45:15.513Z,11.40
2019-01-05T20:48:05.381Z,11.50
2019-01-05T20:51:10.632Z,14.97
2019-01-05T20:53:59.184Z,13.67
2019-01-05T20:57:07.372Z,13.40
2019-01-05T20:59:51.318Z,14.77
2019-01-05T21:02:42.327Z,15.40
2019-01-05T21:05:32.359Z,15.77
2019-01-05T21:08:21.000Z,14.77
2019-01-05T21:11:25.316Z,14.97
2019-01-05T21:14:21.724Z,16.00
2019-01-05T21:17:10.549Z,16.70
2019-01-05T21:20:20.022Z,16.17
2019-01-05T21:23:12.901Z,14.93
2019-01-05T21:26:01.938Z,15.37
2019-01-05T21:29:00.790Z,15.90
2019-01-05T21:31:53.776Z,14.55
2019-01-05T21:34:48.902Z,16.60
2019-01-05T21:37:44.728Z,14.80
2019-01-05T21:40:34.250Z,13.50
2019-01-05T21:43:30.182Z,15.70
2019-01-05T21:46:35.013Z,13.80
2019-01-05T21:49:37.325Z,16.17
2019-01-05T21:52:26.312Z,15.53
2019-01-05T21:55:14.932Z,19.03
2019-01-05T21:57:55.335Z,14.37
2019-01-05T22:00:43.713Z,10.87
2019-01-05T22:03:48.992Z,10.20
2019-01-05T22:06:47.485Z,12.47
2019-01-05T22:09:36.065Z,13.63
2019-01-05T22:12:29.246Z,11.70
2019-01-05T22:21:21.207Z,10.60
2019-01-05T22:24:23.843Z,10.67
2019-01-05T22:27:19.784Z,11.13
2019-01-05T22:30:08.614Z,10.73
2019-01-05T22:33:07.768Z,13.00
2019-01-05T22:35:49.678Z,14.17
2019-01-05T22:38:39.105Z,14.97
2019-01-05T22:41:29.171Z,15.97
2019-01-05T22:44:25.210Z,17.50
2019-01-05T22:47:27.221Z,16.00
2019-01-05T22:50:15.911Z,16.60
2019-01-05T22:53:06.213Z,32.63
2019-01-05T22:55:57.315Z,18.00
2019-01-05T22:58:46.392Z,14.00
2019-01-05T23:01:50.366Z,16.60
2019-01-05T23:04:53.436Z,14.63
2019-01-05T23:07:58.234Z,14.13
2019-01-05T23:10:50.583Z,14.87
2019-01-05T23:13:37.849Z,11.80
2019-01-05T23:16:34.154Z,13.53
2019-01-05T23:19:21.704Z,15.07
2019-01-05T23:22:16.410Z,13.33
2019-01-05T23:25:06.662Z,13.70
2019-01-05T23:27:55.827Z,14.87
2019-01-05T23:31:04.047Z,14.00
2019-01-05T23:33:52.891Z,13.20
2019-01-05T23:36:58.028Z,12.77
2019-01-05T23:39:47.584Z,13.20
2019-01-05T23:42:36.666Z,11.17
2019-01-05T23:45:41.812Z,13.00
2019-01-05T23:48:30.683Z,10.47
2019-01-05T23:51:36.909Z,11.17
2019-01-05T23:54:42.080Z,10.67
2019-01-05T23:57:50.384Z,9.33
